Terminal Aerodrome Forecast
Issued by NWS Sterling, VA

Home | Current Version | Previous Version | Text Only | Print | Product List | Glossary On
Versions: 1 2 3 4 5 6 7 8 9 10 11 12 13 14 15 16 17 18 19 20 21 22
673
FTUS41 KLWX 121127
TAFIAD
TAF
KIAD 121127Z 1212/1318 00000KT P6SM BKN200
     FM121600 19006KT P6SM BKN090
     FM130100 26005KT P6SM -SHSN BKN040
     FM130600 30011G23KT P6SM BKN040
     FM131000 31015G30KT P6SM SCT040
     FM131400 31019G38KT P6SM SCT040=

USA.gov is the U.S. government's official web portal to all federal, state and local government web resources and services.